Klemme, Iowa
Current Conditions -  °F | °C
As of 6:35 AM on Monday 20 Oct 2014 (Local Time) from KFXY Reporting Station
Clear Clear  
Wind Chill: 41°   Ceiling: Unl
Heat Index: 41°   Visibility: 10mi
Dew Point: 39°   Wind: 3mph
Humidity: 93%   Direction: 270°W
Pressure: 29.99"   Gusts: NA
Location:  43.01°N, 93.6°W
Report Text: KFXY 201135Z AUTO 27003KT 10SM CLR 05/04 A2999 RMK AO2
Loading
Personal Weather Stations






























Interactive Weather Map
Tropical Storm Tracking
New forecast layout! Learn more

10-Day Weather Forecast

Advertisements
Track Severe Weather on mobile